createdAt,value
2018-10-07T00:01:42.935Z,47.10
2018-10-07T00:04:11.186Z,43.60
2018-10-07T00:06:39.455Z,45.30
2018-10-07T00:09:08.415Z,44.13
2018-10-07T00:11:36.874Z,43.15
2018-10-07T00:14:05.166Z,44.90
2018-10-07T00:16:33.416Z,43.00
2018-10-07T00:19:01.688Z,47.37
2018-10-07T00:21:29.940Z,45.30
2018-10-07T00:23:58.750Z,48.80
2018-10-07T00:26:27.024Z,45.98
2018-10-07T00:28:55.380Z,46.10
2018-10-07T00:31:23.643Z,47.70
2018-10-07T00:33:51.905Z,55.03
2018-10-07T00:36:20.149Z,60.83
2018-10-07T00:38:48.391Z,65.28
2018-10-07T00:41:16.655Z,58.78
2018-10-07T00:43:44.906Z,58.20
2018-10-07T00:46:13.151Z,60.05
2018-10-07T00:48:41.506Z,65.70
2018-10-07T00:51:09.789Z,69.90
2018-10-07T00:53:38.087Z,83.03
2018-10-07T00:56:06.360Z,84.55
2018-10-07T00:58:34.642Z,78.95
2018-10-07T01:01:02.916Z,81.87
2018-10-07T01:03:31.167Z,77.00
2018-10-07T01:05:59.491Z,80.57
2018-10-07T01:08:27.735Z,80.90
2018-10-07T01:10:55.982Z,83.78
2018-10-07T01:13:24.212Z,83.47
2018-10-07T01:15:52.521Z,109.83
2018-10-07T01:18:20.759Z,121.02
2018-10-07T01:20:49.050Z,117.47
2018-10-07T01:23:17.686Z,122.53
2018-10-07T01:25:45.973Z,127.80
2018-10-07T01:28:14.243Z,138.12
2018-10-07T01:30:42.486Z,137.43
2018-10-07T01:33:10.791Z,137.32
2018-10-07T01:35:39.085Z,135.43
2018-10-07T01:38:07.356Z,133.63
2018-10-07T01:40:35.694Z,137.00
2018-10-07T01:43:03.952Z,141.57
2018-10-07T01:45:32.268Z,140.18
2018-10-07T01:48:00.568Z,136.15
2018-10-07T01:50:28.844Z,142.57
2018-10-07T01:52:57.092Z,134.20
2018-10-07T01:55:25.353Z,143.70
2018-10-07T01:57:53.640Z,139.52
2018-10-07T02:00:21.922Z,134.55
2018-10-07T02:02:50.203Z,140.47
2018-10-07T02:05:18.482Z,141.32
2018-10-07T02:07:46.772Z,140.85
2018-10-07T02:10:15.139Z,129.97
2018-10-07T02:12:43.423Z,125.67
2018-10-07T02:15:11.692Z,127.57
2018-10-07T02:17:39.961Z,130.57
2018-10-07T02:20:08.232Z,126.00
2018-10-07T02:22:36.480Z,140.30
2018-10-07T02:25:04.739Z,135.07
2018-10-07T02:27:32.988Z,131.40
2018-10-07T02:30:01.301Z,129.13
2018-10-07T02:32:29.533Z,118.40
2018-10-07T02:34:57.814Z,128.73
2018-10-07T02:37:26.069Z,128.67
2018-10-07T02:39:54.334Z,133.00
2018-10-07T02:42:22.588Z,123.87
2018-10-07T02:44:50.840Z,124.40
2018-10-07T02:47:19.099Z,127.27
2018-10-07T02:49:47.393Z,128.60
2018-10-07T02:52:19.840Z,120.93
2018-10-07T02:54:48.120Z,122.98
2018-10-07T02:57:16.352Z,123.78
2018-10-07T02:59:44.646Z,116.75
2018-10-07T03:02:12.935Z,120.33
2018-10-07T03:04:41.383Z,113.97
2018-10-07T03:07:09.600Z,114.52
2018-10-07T03:09:37.886Z,118.50
2018-10-07T03:12:06.256Z,115.08
2018-10-07T03:14:34.536Z,119.20
2018-10-07T03:17:03.586Z,111.72
2018-10-07T03:19:31.877Z,108.90
2018-10-07T03:22:00.165Z,91.12
2018-10-07T03:24:28.497Z,85.12
2018-10-07T03:26:56.754Z,56.35
2018-10-07T03:29:25.047Z,52.70
2018-10-07T03:31:53.339Z,56.60
2018-10-07T03:34:21.631Z,53.28
2018-10-07T03:36:50.026Z,52.38
2018-10-07T03:39:18.281Z,37.35
2018-10-07T03:41:46.554Z,36.77
2018-10-07T03:44:14.806Z,38.92
2018-10-07T03:46:43.108Z,42.83
2018-10-07T03:49:11.404Z,30.97
2018-10-07T03:51:39.656Z,36.20
2018-10-07T03:54:07.907Z,37.90
2018-10-07T03:56:36.151Z,40.83
2018-10-07T03:59:04.388Z,34.23
2018-10-07T04:01:32.692Z,37.60
2018-10-07T04:04:01.009Z,35.10
2018-10-07T04:06:29.256Z,35.50
2018-10-07T04:08:57.525Z,35.78
2018-10-07T04:11:25.779Z,32.20
2018-10-07T04:13:54.102Z,29.55
2018-10-07T04:16:22.364Z,27.82
2018-10-07T04:18:50.622Z,32.80
2018-10-07T04:21:18.919Z,28.80
2018-10-07T04:23:47.168Z,27.55
2018-10-07T04:26:15.462Z,26.95
2018-10-07T04:28:43.757Z,26.17
2018-10-07T04:31:12.051Z,25.37
2018-10-07T04:33:40.316Z,27.07
2018-10-07T04:36:08.709Z,23.07
2018-10-07T04:38:36.945Z,18.40
2018-10-07T04:41:05.185Z,18.45
2018-10-07T04:43:33.423Z,15.90
2018-10-07T04:46:01.704Z,17.12
2018-10-07T04:48:29.976Z,17.20
2018-10-07T04:50:58.259Z,18.82
2018-10-07T04:53:26.723Z,19.27
2018-10-07T04:55:55.026Z,17.27
2018-10-07T04:58:24.481Z,21.60
2018-10-07T05:00:52.981Z,19.65
2018-10-07T05:03:21.342Z,19.37
2018-10-07T05:05:50.366Z,18.12
2018-10-07T05:08:18.634Z,13.30
2018-10-07T05:10:51.256Z,16.60
2018-10-07T05:13:28.560Z,14.23
2018-10-07T05:15:59.038Z,11.03
2018-10-07T05:18:27.368Z,15.68
2018-10-07T05:20:55.954Z,17.73
2018-10-07T05:23:24.210Z,12.80
2018-10-07T05:25:52.468Z,14.28
2018-10-07T05:28:20.754Z,10.20
2018-10-07T05:30:49.023Z,13.98
2018-10-07T05:33:17.348Z,11.65
2018-10-07T05:35:45.611Z,13.65
2018-10-07T05:38:13.888Z,10.45
2018-10-07T05:40:42.171Z,14.18
2018-10-07T05:43:10.516Z,12.82
2018-10-07T05:45:38.764Z,9.97
2018-10-07T05:48:07.056Z,10.00
2018-10-07T05:50:35.358Z,6.62
2018-10-07T05:53:03.622Z,11.08
2018-10-07T05:55:31.887Z,9.43
2018-10-07T05:58:01.729Z,13.10
2018-10-07T06:00:30.871Z,13.78
2018-10-07T06:03:13.219Z,11.10
2018-10-07T06:05:41.751Z,8.13
2018-10-07T06:08:10.264Z,9.68
2018-10-07T06:10:38.528Z,8.00
2018-10-07T06:13:06.804Z,13.58
2018-10-07T06:15:36.298Z,9.90
2018-10-07T06:18:04.603Z,11.55
2018-10-07T06:20:32.898Z,13.78
2018-10-07T06:23:01.157Z,9.00
2018-10-07T06:25:29.428Z,10.88
2018-10-07T06:27:57.984Z,10.50
2018-10-07T06:30:26.269Z,10.93
2018-10-07T06:32:54.750Z,9.60
2018-10-07T06:35:23.976Z,8.30
2018-10-07T06:37:52.723Z,10.35
2018-10-07T06:40:21.322Z,17.70
2018-10-07T06:42:49.564Z,9.13
2018-10-07T06:45:17.888Z,7.87
2018-10-07T06:47:46.304Z,7.60
2018-10-07T06:50:14.666Z,7.27
2018-10-07T06:52:42.992Z,10.68
2018-10-07T06:55:11.276Z,10.43
2018-10-07T06:57:39.566Z,12.55
2018-10-07T07:00:08.660Z,12.35
2018-10-07T07:02:36.923Z,12.20
2018-10-07T07:05:05.490Z,10.80
2018-10-07T07:07:33.833Z,8.28
2018-10-07T07:10:02.118Z,6.70
2018-10-07T07:12:30.386Z,5.30
2018-10-07T07:14:58.644Z,7.20
2018-10-07T07:17:26.908Z,7.97
2018-10-07T07:19:55.248Z,6.40
2018-10-07T07:22:23.476Z,7.30
2018-10-07T07:24:51.734Z,7.83
2018-10-07T07:27:19.999Z,6.42
2018-10-07T07:29:48.306Z,9.73
2018-10-07T07:32:16.570Z,6.85
2018-10-07T07:34:44.816Z,7.83
2018-10-07T07:37:13.115Z,8.63
2018-10-07T07:39:41.368Z,5.30
2018-10-07T07:42:09.680Z,4.78
2018-10-07T07:44:37.934Z,6.65
2018-10-07T07:47:06.375Z,6.20
2018-10-07T07:49:34.658Z,5.10
2018-10-07T07:52:02.923Z,5.70
2018-10-07T07:54:31.195Z,5.65
2018-10-07T07:56:59.457Z,8.20
2018-10-07T07:59:27.735Z,4.75
2018-10-07T08:01:55.992Z,3.10
2018-10-07T08:04:24.279Z,3.17
2018-10-07T08:06:52.527Z,2.87
2018-10-07T08:09:20.754Z,2.50
2018-10-07T08:11:49.018Z,5.07
2018-10-07T08:14:17.312Z,3.45
2018-10-07T08:16:45.610Z,4.30
2018-10-07T08:19:13.876Z,5.00
2018-10-07T08:21:42.124Z,5.42
2018-10-07T08:24:10.408Z,3.60
2018-10-07T08:26:38.687Z,3.90
2018-10-07T08:29:07.032Z,3.90
2018-10-07T08:31:35.278Z,3.58
2018-10-07T08:34:03.546Z,3.58
2018-10-07T08:36:31.849Z,4.80
2018-10-07T08:39:00.056Z,6.10
2018-10-07T08:41:28.348Z,3.70
2018-10-07T08:43:56.593Z,4.33
2018-10-07T08:46:24.829Z,2.98
2018-10-07T08:48:53.110Z,2.60
2018-10-07T08:51:21.350Z,3.20
2018-10-07T08:53:49.591Z,2.40
2018-10-07T08:56:17.887Z,1.75
2018-10-07T08:58:46.084Z,3.83
2018-10-07T09:01:14.364Z,2.85
2018-10-07T09:03:42.622Z,2.05
2018-10-07T09:06:10.864Z,2.90
2018-10-07T09:08:39.216Z,1.90
2018-10-07T09:11:07.503Z,2.05
2018-10-07T09:13:35.748Z,2.83
2018-10-07T09:16:04.763Z,3.17
2018-10-07T09:18:33.042Z,2.40
2018-10-07T09:21:01.388Z,1.85
2018-10-07T09:23:29.694Z,2.60
2018-10-07T09:25:57.920Z,2.90
2018-10-07T09:28:26.190Z,1.98
2018-10-07T09:30:54.620Z,1.80
2018-10-07T09:33:22.911Z,2.47
2018-10-07T09:35:51.144Z,1.67
2018-10-07T09:38:19.378Z,1.95
2018-10-07T09:40:47.629Z,2.40
2018-10-07T09:43:15.922Z,2.37
2018-10-07T09:45:44.213Z,2.20
2018-10-07T09:48:12.482Z,1.47
2018-10-07T09:50:40.704Z,1.80
2018-10-07T09:53:08.980Z,1.57
2018-10-07T09:55:37.204Z,1.70
2018-10-07T09:58:05.541Z,2.63
2018-10-07T10:00:40.391Z,2.20
2018-10-07T10:03:09.764Z,2.33
2018-10-07T10:05:38.058Z,3.37
2018-10-07T10:08:06.630Z,1.80
2018-10-07T10:10:34.876Z,6.50
2018-10-07T10:13:03.133Z,2.87
2018-10-07T10:15:31.412Z,2.22
2018-10-07T10:18:02.723Z,2.20
2018-10-07T10:21:44.173Z,2.80
2018-10-07T10:26:25.045Z,2.92
2018-10-07T10:29:04.689Z,2.20
2018-10-07T10:31:44.446Z,2.52
2018-10-07T10:34:23.575Z,3.12
2018-10-07T10:37:05.657Z,2.58
2018-10-07T10:40:10.657Z,1.87
2018-10-07T10:42:55.353Z,1.90
2018-10-07T10:45:32.874Z,1.90
2018-10-07T10:48:23.759Z,2.00
2018-10-07T10:50:58.885Z,2.00
2018-10-07T10:53:41.468Z,1.80
2018-10-07T10:56:26.431Z,2.00
2018-10-07T10:59:26.653Z,3.10
2018-10-07T11:02:14.312Z,1.40
2018-10-07T11:04:52.872Z,2.40
2018-10-07T11:07:24.714Z,3.20
2018-10-07T11:12:04.548Z,1.70
2018-10-07T11:14:43.938Z,2.42
2018-10-07T11:19:28.317Z,1.70
2018-10-07T11:22:07.302Z,1.80
2018-10-07T11:24:43.831Z,1.70
2018-10-07T11:28:22.683Z,1.40
2018-10-07T11:31:07.182Z,1.10
2018-10-07T11:34:45.549Z,2.40
2018-10-07T11:37:36.368Z,2.95
2018-10-07T11:40:14.316Z,2.50
2018-10-07T11:42:47.114Z,2.62
2018-10-07T11:45:19.144Z,3.02
2018-10-07T11:48:02.077Z,2.75
2018-10-07T11:50:57.938Z,1.40
2018-10-07T11:53:31.610Z,2.17
2018-10-07T11:55:59.827Z,2.90
2018-10-07T11:58:28.995Z,2.27
2018-10-07T12:00:57.310Z,2.85
2018-10-07T12:03:25.626Z,1.10
2018-10-07T12:05:53.922Z,2.92
2018-10-07T12:08:22.402Z,2.70
2018-10-07T12:10:50.692Z,2.00
2018-10-07T12:13:18.939Z,3.35
2018-10-07T12:15:47.544Z,1.55
2018-10-07T12:18:15.786Z,2.87
2018-10-07T12:20:44.056Z,1.77
2018-10-07T12:23:12.322Z,3.83
2018-10-07T12:25:40.950Z,3.67
2018-10-07T12:28:09.524Z,2.30
2018-10-07T12:30:37.884Z,2.80
2018-10-07T12:33:06.476Z,2.00
2018-10-07T12:35:34.765Z,1.37
2018-10-07T12:38:03.080Z,2.80
2018-10-07T12:40:31.541Z,1.10
2018-10-07T12:42:59.864Z,2.80
2018-10-07T12:45:28.150Z,2.43
2018-10-07T12:47:56.404Z,2.10
2018-10-07T12:50:24.675Z,1.73
2018-10-07T12:52:53.760Z,2.37
2018-10-07T12:55:22.100Z,1.40
2018-10-07T12:57:50.387Z,1.70
2018-10-07T13:00:18.683Z,1.50
2018-10-07T13:02:46.935Z,2.10
2018-10-07T13:05:15.222Z,1.82
2018-10-07T13:07:43.483Z,2.70
2018-10-07T13:10:11.851Z,1.75
2018-10-07T13:12:40.116Z,1.90
2018-10-07T13:15:08.424Z,2.10
2018-10-07T13:17:36.758Z,2.47
2018-10-07T13:20:05.290Z,2.50
2018-10-07T13:22:33.716Z,2.00
2018-10-07T13:25:02.042Z,2.40
2018-10-07T13:27:30.521Z,1.80
2018-10-07T13:29:58.780Z,2.72
2018-10-07T13:32:27.181Z,2.80
2018-10-07T13:34:55.416Z,2.40
2018-10-07T13:37:23.803Z,1.80
2018-10-07T13:39:52.086Z,1.45
2018-10-07T13:42:20.347Z,2.00
2018-10-07T13:44:48.622Z,1.57
2018-10-07T13:47:16.935Z,3.77
2018-10-07T13:49:45.234Z,2.42
2018-10-07T13:52:13.536Z,2.55
2018-10-07T13:54:41.794Z,3.67
2018-10-07T13:57:10.088Z,3.00
2018-10-07T13:59:38.353Z,3.25
2018-10-07T14:02:06.601Z,3.72
2018-10-07T14:04:34.922Z,2.55
2018-10-07T14:07:03.160Z,4.03
2018-10-07T14:09:31.411Z,5.30
2018-10-07T14:11:59.661Z,1.85
2018-10-07T14:14:28.013Z,2.70
2018-10-07T14:16:56.287Z,4.08
2018-10-07T14:19:24.558Z,2.30
2018-10-07T14:21:52.807Z,2.72
2018-10-07T14:24:21.068Z,3.08
2018-10-07T14:26:49.332Z,3.00
2018-10-07T14:29:17.587Z,2.42
2018-10-07T14:31:45.823Z,2.80
2018-10-07T14:34:14.092Z,4.35
2018-10-07T14:36:42.384Z,2.70
2018-10-07T14:39:12.339Z,2.80
2018-10-07T14:41:40.551Z,4.20
2018-10-07T14:44:08.828Z,4.40
2018-10-07T14:46:37.175Z,2.45
2018-10-07T14:49:05.427Z,2.92
2018-10-07T14:51:33.692Z,4.17
2018-10-07T14:54:01.952Z,4.80
2018-10-07T14:56:30.203Z,3.95
2018-10-07T14:58:58.456Z,3.55
2018-10-07T15:01:26.742Z,3.30
2018-10-07T15:03:54.971Z,2.52
2018-10-07T15:06:23.235Z,2.30
2018-10-07T15:08:51.491Z,2.85
2018-10-07T15:11:19.792Z,4.25
2018-10-07T15:13:48.186Z,3.45
2018-10-07T15:16:16.511Z,3.17
2018-10-07T15:18:44.750Z,5.05
2018-10-07T15:21:12.987Z,3.00
2018-10-07T15:23:41.237Z,2.70
2018-10-07T15:26:09.442Z,3.67
2018-10-07T15:28:37.804Z,5.72
2018-10-07T15:31:06.043Z,2.62
2018-10-07T15:33:34.330Z,3.72
2018-10-07T15:36:02.617Z,1.67
2018-10-07T15:38:30.898Z,2.95
2018-10-07T15:40:59.128Z,2.70
2018-10-07T15:43:27.432Z,2.50
2018-10-07T15:45:55.812Z,2.55
2018-10-07T15:48:24.172Z,2.27
2018-10-07T15:50:52.438Z,3.55
2018-10-07T15:53:20.699Z,4.25
2018-10-07T15:55:48.964Z,2.40
2018-10-07T15:58:17.526Z,5.60
2018-10-07T16:00:45.814Z,2.30
2018-10-07T16:03:14.076Z,3.50
2018-10-07T16:05:42.419Z,5.50
2018-10-07T16:08:10.796Z,2.90
2018-10-07T16:10:39.073Z,5.40
2018-10-07T16:13:07.325Z,1.90
2018-10-07T16:15:35.602Z,3.02
2018-10-07T16:18:03.892Z,5.40
2018-10-07T16:20:32.159Z,4.28
2018-10-07T16:23:00.479Z,3.58
2018-10-07T16:25:28.764Z,5.42
2018-10-07T16:27:57.024Z,2.70
2018-10-07T16:30:25.351Z,4.05
2018-10-07T16:32:53.610Z,3.47
2018-10-07T16:35:21.929Z,4.72
2018-10-07T16:37:50.242Z,4.62
2018-10-07T16:40:18.508Z,4.65
2018-10-07T16:42:46.790Z,3.33
2018-10-07T16:45:15.135Z,4.17
2018-10-07T16:47:43.410Z,3.10
2018-10-07T16:50:11.664Z,4.63
2018-10-07T16:52:40.243Z,3.93
2018-10-07T16:55:08.522Z,4.00
2018-10-07T16:57:36.802Z,1.75
2018-10-07T17:00:05.080Z,3.33
2018-10-07T17:02:33.344Z,3.10
2018-10-07T17:05:01.602Z,3.70
2018-10-07T17:07:29.880Z,4.00
2018-10-07T17:09:58.131Z,2.80
2018-10-07T17:12:26.383Z,3.60
2018-10-07T17:14:54.669Z,5.23
2018-10-07T17:17:22.956Z,3.77
2018-10-07T17:19:51.334Z,7.22
2018-10-07T17:22:19.581Z,7.90
2018-10-07T17:24:48.145Z,6.37
2018-10-07T17:27:16.676Z,5.28
2018-10-07T17:29:44.889Z,3.80
2018-10-07T17:32:13.162Z,7.53
2018-10-07T17:34:41.409Z,6.27
2018-10-07T17:37:09.632Z,4.63
2018-10-07T17:39:37.909Z,5.07
2018-10-07T17:42:06.159Z,8.80
2018-10-07T17:44:34.434Z,6.83
2018-10-07T17:47:02.702Z,7.05
2018-10-07T17:49:30.960Z,14.55
2018-10-07T17:51:59.207Z,8.50
2018-10-07T17:54:27.469Z,5.35
2018-10-07T17:56:55.794Z,5.15
2018-10-07T17:59:24.047Z,6.25
2018-10-07T18:01:52.401Z,5.60
2018-10-07T18:04:20.680Z,5.95
2018-10-07T18:06:48.982Z,6.17
2018-10-07T18:09:17.284Z,6.73
2018-10-07T18:11:45.512Z,8.40
2018-10-07T18:14:13.770Z,9.80
2018-10-07T18:16:42.047Z,13.30
2018-10-07T18:19:10.301Z,6.20
2018-10-07T18:21:38.643Z,7.42
2018-10-07T18:24:06.907Z,10.85
2018-10-07T18:26:35.269Z,7.75
2018-10-07T18:29:03.598Z,13.68
2018-10-07T18:31:31.900Z,8.20
2018-10-07T18:34:00.206Z,9.63
2018-10-07T18:36:28.460Z,8.55
2018-10-07T18:38:56.763Z,8.78
2018-10-07T18:41:25.035Z,10.60
2018-10-07T18:43:53.355Z,10.13
2018-10-07T18:46:21.637Z,9.33
2018-10-07T18:48:50.005Z,11.30
2018-10-07T18:51:18.213Z,10.03
2018-10-07T18:53:46.510Z,8.73
2018-10-07T18:56:14.787Z,10.70
2018-10-07T18:58:43.260Z,7.30
2018-10-07T19:01:11.523Z,8.20
2018-10-07T19:03:39.769Z,6.35
2018-10-07T19:06:08.194Z,8.20
2018-10-07T19:08:36.571Z,7.12
2018-10-07T19:11:04.811Z,5.00
2018-10-07T19:13:33.132Z,7.75
2018-10-07T19:16:01.563Z,6.30
2018-10-07T19:18:29.852Z,6.33
2018-10-07T19:20:58.241Z,5.78
2018-10-07T19:23:26.458Z,8.53
2018-10-07T19:25:54.714Z,9.68
2018-10-07T19:28:22.952Z,10.20
2018-10-07T19:30:51.255Z,9.68
2018-10-07T19:33:19.543Z,11.73
2018-10-07T19:35:47.786Z,9.68
2018-10-07T19:38:16.083Z,10.82
2018-10-07T19:40:44.359Z,12.75
2018-10-07T19:43:12.651Z,12.40
2018-10-07T19:45:40.952Z,13.57
2018-10-07T19:48:09.215Z,14.83
2018-10-07T19:50:37.464Z,11.60
2018-10-07T19:53:06.162Z,24.32
2018-10-07T19:55:34.415Z,27.00
2018-10-07T19:58:02.693Z,21.10
2018-10-07T20:00:30.952Z,15.03
2018-10-07T20:02:59.231Z,14.68
2018-10-07T20:05:27.516Z,18.52
2018-10-07T20:07:55.801Z,18.65
2018-10-07T20:10:24.081Z,10.40
2018-10-07T20:12:52.318Z,17.07
2018-10-07T20:15:20.585Z,20.60
2018-10-07T20:17:48.821Z,18.73
2018-10-07T20:20:17.111Z,15.37
2018-10-07T20:22:45.403Z,11.60
2018-10-07T20:25:13.683Z,11.53
2018-10-07T20:27:41.924Z,16.02
2018-10-07T20:30:10.175Z,10.23
2018-10-07T20:32:38.473Z,10.03
2018-10-07T20:35:06.804Z,12.10
2018-10-07T20:37:35.072Z,13.05
2018-10-07T20:40:03.316Z,9.88
2018-10-07T20:42:31.564Z,14.87
2018-10-07T20:44:59.862Z,11.83
2018-10-07T20:47:28.150Z,11.48
2018-10-07T20:49:56.407Z,11.78
2018-10-07T20:52:24.740Z,10.58
2018-10-07T20:54:53.006Z,13.18
2018-10-07T20:57:21.276Z,18.70
2018-10-07T20:59:49.604Z,18.02
2018-10-07T21:02:17.855Z,16.37
2018-10-07T21:04:46.085Z,17.83
2018-10-07T21:07:14.340Z,17.52
2018-10-07T21:09:42.632Z,10.58
2018-10-07T21:12:10.866Z,13.68
2018-10-07T21:14:39.150Z,9.93
2018-10-07T21:17:07.467Z,10.82
2018-10-07T21:19:35.714Z,13.68
2018-10-07T21:22:03.998Z,14.27
2018-10-07T21:24:32.254Z,15.53
2018-10-07T21:27:00.565Z,12.13
2018-10-07T21:29:29.003Z,11.63
2018-10-07T21:31:57.106Z,11.60
2018-10-07T21:34:25.393Z,11.03
2018-10-07T21:36:53.641Z,9.67
2018-10-07T21:39:21.851Z,8.40
2018-10-07T21:41:50.166Z,8.15
2018-10-07T21:44:18.517Z,9.80
2018-10-07T21:46:46.826Z,7.58
2018-10-07T21:49:15.076Z,9.90
2018-10-07T21:51:43.311Z,10.48
2018-10-07T21:54:11.592Z,11.05
2018-10-07T21:56:39.865Z,8.13
2018-10-07T21:59:08.124Z,10.43
2018-10-07T22:01:36.379Z,10.98
2018-10-07T22:04:04.892Z,7.65
2018-10-07T22:06:33.158Z,10.75
2018-10-07T22:09:01.430Z,9.00
2018-10-07T22:11:29.713Z,8.43
2018-10-07T22:13:57.993Z,9.95
2018-10-07T22:16:26.240Z,12.23
2018-10-07T22:18:54.537Z,14.70
2018-10-07T22:21:22.860Z,15.93
2018-10-07T22:23:51.121Z,10.72
2018-10-07T22:26:19.371Z,6.58
2018-10-07T22:28:47.621Z,9.93
2018-10-07T22:31:15.892Z,6.70
2018-10-07T22:33:44.186Z,7.03
2018-10-07T22:36:12.458Z,7.67
2018-10-07T22:38:40.712Z,7.47
2018-10-07T22:41:09.342Z,8.33
2018-10-07T22:43:37.560Z,6.73
2018-10-07T22:46:05.815Z,7.85
2018-10-07T22:48:34.084Z,5.22
2018-10-07T22:51:02.356Z,5.12
2018-10-07T22:53:30.608Z,9.48
2018-10-07T22:55:58.852Z,5.50
2018-10-07T22:58:27.114Z,7.10
2018-10-07T23:00:55.382Z,9.10
2018-10-07T23:03:23.637Z,6.42
2018-10-07T23:05:51.896Z,8.58
2018-10-07T23:08:20.165Z,11.28
2018-10-07T23:10:48.871Z,6.50
2018-10-07T23:13:17.153Z,6.95
2018-10-07T23:15:45.418Z,7.60
2018-10-07T23:18:13.683Z,6.08
2018-10-07T23:20:41.950Z,8.35
2018-10-07T23:23:10.226Z,8.73
2018-10-07T23:25:38.489Z,5.10
2018-10-07T23:28:06.798Z,6.27
2018-10-07T23:30:35.050Z,6.45
2018-10-07T23:33:03.260Z,8.10
2018-10-07T23:35:31.494Z,8.85
2018-10-07T23:38:02.810Z,9.08
2018-10-07T23:40:31.147Z,6.95
2018-10-07T23:42:59.396Z,7.80
2018-10-07T23:45:27.706Z,5.60
2018-10-07T23:47:55.986Z,7.70
2018-10-07T23:50:24.229Z,8.03
2018-10-07T23:52:52.506Z,9.68
2018-10-07T23:55:20.770Z,8.18
2018-10-07T23:57:49.021Z,7.10
